Misión y Visión

La misión es proporcionar información fiable a la navegación aérea, contribuyendo a la seguridad, regularidad y eficiencia de la Navegación Aérea Internacional

La visión es contribuir sustancialmente al desarrollo de conocimientos y a la utilización de la meteorología aeronáutica a nivel nacional e internacional, mediante la innovación y la coparticipación con sectores sociales y productivos de la sociedad.

 
  Inicio
  Metar
  Taf
  Wintemp
  SIGMET
  Avisos
  Pronósticos
  Carpeta Meteorologica
  Imágenes Satelitales
  Climatología Aeronáutica
   
  ¿Quienes Somos?
  Contacto
  Eventos
  Publicaciones
  Politica de la Calidad
Metar

 

 

DIRECCIONES PARA INFORMES NACIONALES E INTERNACIONALES
(Metar /Speci - TAF)

http://adds.aviationweather.gov/tafs/index.php

http://www.ogimet.com/metars.phtml

PRONÓSTICOS DE AERÓDROMO

Cuando sea necesario, el encabezamiento abreviado puede incluir un cuarto grupo consistente en tres letras para identificar los boletines demorados (RRA), corregidos (CCA) o enmendados (AAA). Los boletines adicionales demorados, corregidos o enmendados deben identificarse con las letras RRB, RRC, etc.; CCB, CCC,etc.;AAB, AAC,etc.

METAR

DIA: 17/04/2014

 

TOCUMEN INTL

MPTO

(M) 171800Z 03007KT 9000 SCT018 35/// Q1010 NOSIG RMK HZ ALQDS  

MARCOS A GELABERT

ALBROOK

MPMG

(M) 171800Z 01012KT 9999 FEW020 32/20 Q1010 NOSIG

ENRIQUE MALEK

DAVID, CHIRIQUI

MPDA

(M) 171800Z 20012KT 9999 SCT016 33/24 Q1008

TCBOCAS DEL TORO

 

MPBO

(M)  171800Z 03006KT 340V070 9000 SCT016 SCT090 Q1015

CHANGUINOLA

MANUEL NIÑO

MPCH

(M) 171800Z 03008KT 9999 BKN030 Q1015

PANAMA PACIFICO

MPPA

(M) 171800Z 01012KT 9000 SCT020 Q1011 RMK HZ ALQDS   

CHITRE

ALONSO VALDERRAMA

MPCE

(M) 171800Z 36018KT(E) 9000 FEW018 Q1010 RMK HZ ALQDS

SANTIAGO

RUBEN CANTU

MPSA

(M) 171800Z 09006KT 9999 SCT020 35/18 Q1009

COLON

ENRIQUE JIMENEZ

MPEJ

(M) 171800Z 36017KT 9999 FEW020 31/24 Q1011 RMK HZ ALQDS

 RIO HATO

SCARLET MARTINEZ

MPSM

(M) 171800Z  N   I   L

PENONOME

 

MPPN

(M) 171700Z 36014KT(E) 9000 SCT018 RMK HZ ALQDS

PORVENIR

MPVR

(M) 171800Z 03015KT 9000 SCT016TCU BKN080 RMK  HZ ALQDS

OBALDIA

MPOA

(M)

JAQUE

MPJE

(M)

MIRAFLORES



MPMF

(M)

 

 

 

 

 

 

CLIMATICAS

DIA: 14-04-2014

MPTO

  

PCPN (mm)

T° MAX

T° MIN

VIENTO MAX (KT)

HORA

VIENTO PREDOM (KT)

 

0.0

33.0

23.5

19005KT

1700Z

NW 04KT

 

  CLIMATICAS

DIA: 16-04-2014

MPMG

 

 

PCPN (mm)

T° MAX

T° MIN

VIENTO MAX (KT)

HORA

VIENTO PREDOM (KT)

 

0.0

         31.5

25.7

34010KT

2100Z

  NW

 

 

 

METAR es el estándar internacional del formato del código utilizado para emitir informes de las observaciones meteorológicas en los aeródromos realizado periódicamente

El código SPECI es el nombre en código dado al METAR emitido en una rutina no programada especial, ocasionada por cambios en las condiciones meteorológicas. La sigla SPECI se traduce como Selección Especial del Reporte Meteorológico para la Aviación.

Es usado por los meteorologos, para ayudarse en los pronósticos del tiempo, y fundamentalmente por los pilotos de las aeronaves para conocer la meteorología de los aeropuertos de destino y actuar en consecuencia. Los reportes METAR usualmente vienen de los aeropuertos. Típicamente se emiten cada media hora o una hora (depende del aeródromo); sin embargo, si las condiciones cambian significativamente, pueden actualizarse con reportes llamados SPECI.

Continuamos, con los pronosticos de tendencia, esta parte esta al final del METAR, cuando no pone NOSIG, eso es lo que vamos a aprender a decodificar.

TREND - Es un pronostico que abarca un periodo de dos horas a contar desde el momento del informe y consiste en una exposicion concisa de los cambios esperados en las condiciones meteorologicas del aerodromo que se añade al final de un informe METAR o SPECI. El pronostico TREND indica cambios importantes con respecto a uno o mas de los elementos siguientes: viento en superficie, visibilidad, condiciones meteorologicas y nubes o visibilidad vertical. cuando no se prevea ningun cambio de este tipo se indicara "NOSIG"

Indicador de cambio BECMG- Se utiliza para describir cambios esperados de las condiciones meteorologicas que alcancen o rebasen determinados valores a ritmo regular o irregular TEMPO- Se utiliza para describir fluctuaciones temporales pronosticadas de aquellas condiciones meteorologicas que alcancen o rebasen determinados valores especificados y que duran menos de una hora en cada caso y, en su conjunto, menos de la mitad del periodo del pronostico durante el cual se espera que ocurran las fluctuaciones.

FM(desde)

TL(hasta)

AT(a las)

NSW - Indica la finalizacion de los fenomenos meteorologicos significativos, sustituyendo al grupo ww

NSC - Se aplica cuando no se preven nubes por debajo de la altura de referencia CAVOK, tampoco se preven CB y no se pueen usar CAVOK o SKC

NOSIG - Indica la ausencia de cambios significativos durante el periodo de pronostico

 

 

 
 











  Noticias AAC
  Directorio
  Contáctenos
  Historia
  Quejas y Sugerencias
  Etica y Transparencia

  Gestión SSP/SMS
  Seguridad Aérea
  Navegación Aérea
  Transporte Aéreo

  Tramites
  Áeronaves de Alquiler

  Meteorología
  I.S.F.P.A
  Notam
  Peligro Aviario
  AVSEC
  UPIA
  Permisos
 




DECLARACIÓN DE PRIVACIDAD